Hampton, VA (23668)

2:05 AM EST on February 11, 2016 (GMT -0500)
East Hampton | | Change Station
CLOSE
Current Station
Personal Weather Station
Location: Hampton, VA
Elevation: 0 ft
Nearby Weather Stations

Elev 0 ft 37.03 °N, 76.34 °W | Updated 5 seconds ago

Mostly Cloudy
Mostly Cloudy
30.6 °F
Feels Like 20 °F
N
13.6
Wind Variable Wind from SW
Gusts 15.0 mph

Today
High -- | Low -- °F
--% Chance of Precip.
Yesterday
High -- | Low -- °F
Precip. -- in
Pressure 30.01 in
Visibility 10.0 miles
Clouds Clear
Windchill 20 °F
Dew Point -1 °F
Humidity 25%
Rainfall 0.00 in
Snow Depth Not available.
6:58 AM 5:40 PM
Waxing Crescent, 10% visible
METAR KLFI 110658Z AUTO 29015KT 10SM CLR M03/M15 A2999 RMK AO2 SLP163 T10281150 $
Pressure 30.01 in
Visibility 10.0 miles
Clouds Clear
Windchill 20 °F
Dew Point -1 °F
Humidity 25%
Rainfall 0.00 in
Snow Depth Not available.
6:58 AM 5:40 PM
Waxing Crescent, 10% visible
METAR KLFI 110658Z AUTO 29015KT 10SM CLR M03/M15 A2999 RMK AO2 SLP163 T10281150 $

10-Day Weather Forecast

Almanac

Astronomy

Feb. 11, 2016 Rise Set
Actual Time
Civil Twilight
Nautical Twilight
Astronomical Twilight
Moon
Length of Visible Light
Length of Day
Tomorrow will be .
, % of the Moon is Illuminated

Today's Extremes

State Highs State Lows

Community

WunderPhotos

Upload Photos

1,892,028 photos uploaded!

WunderBlog® & News

Nearby

Air Quality

  Air Quality AQ Index Pollutant
Not available.

Snow Depth

Station Depth Elevation

Earthquake Activity

City Distance Mag. Time & Date
Minimum magnitude displayed is 2.5.

Coastal Water Temperatures

Place Temperature

Stations

Nearby Weather Stations

Station Location Temp. Windchill Dew Point Humidity Wind Precip. Elev Updated Type
                   

Watches & Warnings

There are currently no watches in effect.